ARG1635 SAZR-SABE
Flight info
| Callsign | ARG1635 |
|---|---|
| Flight time | 0h 54m |
| Altitude | 37000 |
| Route | TIMKU2G TIMKU DCT IRASU UW68 ASADA ASADA8Q |
| Aircraft | E190/M-SDE3GILORVW/S |
Departure
| Time | 2026-04-20 17:48 |
|---|---|
| Airport | Santa Rosa Airport (SAZR) |
Arrival
| Time | 2026-04-20 18:43 |
|---|---|
| Airport | Aeroparque Jorge Newbery (SABE) |
| Time | Latitude | Longitude | Altitude | Speed | Heading |
|---|---|---|---|---|---|
| 2026-04-20 17:25 | -36.59173 | -64.27897 | 623 ft | 0 kts | 282° |
| 2026-04-20 17:39 | -36.59173 | -64.27894 | 629 ft | 3 kts | 282° |
| 2026-04-20 17:40 | -36.59179 | -64.27862 | 624 ft | 4 kts | 283° |
| 2026-04-20 17:40 | -36.59186 | -64.27833 | 629 ft | 4 kts | 323° |
| 2026-04-20 17:40 | -36.59188 | -64.27823 | 626 ft | 1 kts | 53° |
| 2026-04-20 17:40 | -36.59190 | -64.27827 | 626 ft | 0 kts | 53° |
| 2026-04-20 17:43 | -36.59190 | -64.27826 | 626 ft | 1 kts | 53° |
| 2026-04-20 17:43 | -36.59180 | -64.27809 | 624 ft | 4 kts | 56° |
| 2026-04-20 17:43 | -36.59161 | -64.27764 | 628 ft | 8 kts | 65° |
| 2026-04-20 17:43 | -36.59133 | -64.27688 | 627 ft | 12 kts | 59° |
| 2026-04-20 17:44 | -36.59057 | -64.27621 | 621 ft | 16 kts | 18° |
| 2026-04-20 17:44 | -36.58950 | -64.27592 | 630 ft | 15 kts | 11° |
| 2026-04-20 17:44 | -36.58854 | -64.27569 | 626 ft | 14 kts | 11° |
| 2026-04-20 17:44 | -36.58759 | -64.27546 | 629 ft | 14 kts | 11° |
| 2026-04-20 17:45 | -36.58659 | -64.27521 | 625 ft | 15 kts | 11° |
| 2026-04-20 17:45 | -36.58554 | -64.27495 | 629 ft | 16 kts | 11° |
| 2026-04-20 17:45 | -36.58443 | -64.27467 | 627 ft | 17 kts | 11° |
| 2026-04-20 17:45 | -36.58326 | -64.27440 | 629 ft | 17 kts | 11° |
| 2026-04-20 17:46 | -36.58210 | -64.27410 | 633 ft | 18 kts | 12° |
| 2026-04-20 17:46 | -36.58076 | -64.27377 | 626 ft | 21 kts | 11° |
| 2026-04-20 17:46 | -36.57981 | -64.27354 | 630 ft | 20 kts | 11° |
| 2026-04-20 17:46 | -36.57867 | -64.27333 | 633 ft | 11 kts | 345° |
| 2026-04-20 17:47 | -36.57820 | -64.27320 | 633 ft | 5 kts | 103° |
| 2026-04-20 17:47 | -36.57834 | -64.27317 | 628 ft | 1 kts | 186° |
| 2026-04-20 17:47 | -36.57853 | -64.27321 | 635 ft | 14 kts | 191° |
| 2026-04-20 17:47 | -36.58359 | -64.27446 | 630 ft | 97 kts | 191° |
| 2026-04-20 17:48 | -36.58894 | -64.27574 | 630 ft | 133 kts | 190° |
| 2026-04-20 17:48 | -36.59895 | -64.27854 | 949 ft | 156 kts | 192° |
| 2026-04-20 17:48 | -36.61068 | -64.28212 | 1236 ft | 193 kts | 190° |
| 2026-04-20 17:48 | -36.62344 | -64.28146 | 1331 ft | 176 kts | 156° |
| 2026-04-20 17:49 | -36.63338 | -64.27425 | 1475 ft | 161 kts | 139° |
| 2026-04-20 17:49 | -36.64088 | -64.26317 | 1838 ft | 171 kts | 120° |
| 2026-04-20 17:49 | -36.64610 | -64.24929 | 2329 ft | 186 kts | 112° |
| 2026-04-20 17:49 | -36.65114 | -64.23383 | 2870 ft | 196 kts | 112° |
| 2026-04-20 17:50 | -36.65633 | -64.21773 | 3486 ft | 203 kts | 113° |
| 2026-04-20 17:50 | -36.66155 | -64.20125 | 4146 ft | 206 kts | 112° |
| 2026-04-20 17:50 | -36.66673 | -64.18446 | 4801 ft | 212 kts | 112° |
| 2026-04-20 17:50 | -36.67206 | -64.16623 | 5282 ft | 231 kts | 110° |
| 2026-04-20 17:51 | -36.67551 | -64.14538 | 5615 ft | 261 kts | 88° |
| 2026-04-20 17:51 | -36.66957 | -64.12365 | 6379 ft | 272 kts | 59° |
| 2026-04-20 17:51 | -36.65704 | -64.10624 | 7227 ft | 275 kts | 45° |
| 2026-04-20 17:51 | -36.64303 | -64.08982 | 8088 ft | 276 kts | 44° |
| 2026-04-20 17:52 | -36.62904 | -64.07323 | 8922 ft | 278 kts | 43° |
| 2026-04-20 17:52 | -36.61492 | -64.05655 | 9739 ft | 281 kts | 41° |
| 2026-04-20 17:52 | -36.60049 | -64.03954 | 10366 ft | 292 kts | 41° |
| 2026-04-20 17:52 | -36.58522 | -64.02187 | 10641 ft | 312 kts | 40° |
| 2026-04-20 17:53 | -36.56882 | -64.00306 | 11018 ft | 329 kts | 40° |
| 2026-04-20 17:53 | -36.55160 | -63.98344 | 11433 ft | 342 kts | 40° |
| 2026-04-20 17:53 | -36.53381 | -63.96323 | 12021 ft | 349 kts | 39° |
| 2026-04-20 17:53 | -36.51570 | -63.94269 | 12671 ft | 355 kts | 39° |
| 2026-04-20 17:54 | -36.49728 | -63.92190 | 13331 ft | 360 kts | 38° |
| 2026-04-20 17:54 | -36.47856 | -63.90090 | 13996 ft | 365 kts | 38° |
| 2026-04-20 17:54 | -36.45956 | -63.87974 | 14629 ft | 368 kts | 38° |
| 2026-04-20 17:54 | -36.44039 | -63.85849 | 15284 ft | 371 kts | 37° |
| 2026-04-20 17:55 | -36.42097 | -63.83714 | 15923 ft | 374 kts | 37° |
| 2026-04-20 17:55 | -36.40159 | -63.81601 | 16536 ft | 377 kts | 37° |
| 2026-04-20 17:55 | -36.38175 | -63.79452 | 17129 ft | 380 kts | 36° |
| 2026-04-20 17:55 | -36.36167 | -63.77292 | 17727 ft | 383 kts | 36° |
| 2026-04-20 17:56 | -36.34142 | -63.75112 | 18318 ft | 388 kts | 38° |
| 2026-04-20 17:56 | -36.32394 | -63.72511 | 18864 ft | 399 kts | 54° |
| 2026-04-20 17:56 | -36.31039 | -63.69466 | 19409 ft | 404 kts | 57° |
| 2026-04-20 17:56 | -36.29656 | -63.66423 | 19966 ft | 406 kts | 56° |
| 2026-04-20 17:57 | -36.28259 | -63.63363 | 20559 ft | 410 kts | 55° |
| 2026-04-20 17:57 | -36.26841 | -63.60276 | 21144 ft | 412 kts | 55° |
| 2026-04-20 17:57 | -36.25413 | -63.57177 | 21681 ft | 415 kts | 54° |
| 2026-04-20 17:57 | -36.23992 | -63.54102 | 22156 ft | 418 kts | 54° |
| 2026-04-20 17:58 | -36.22541 | -63.50968 | 22647 ft | 421 kts | 54° |
| 2026-04-20 17:58 | -36.21077 | -63.47811 | 23118 ft | 424 kts | 54° |
| 2026-04-20 17:58 | -36.19605 | -63.44641 | 23558 ft | 426 kts | 54° |
| 2026-04-20 17:58 | -36.18120 | -63.41449 | 23935 ft | 429 kts | 53° |
| 2026-04-20 17:59 | -36.16625 | -63.38238 | 24303 ft | 431 kts | 53° |
| 2026-04-20 17:59 | -36.15124 | -63.35018 | 24681 ft | 433 kts | 53° |
| 2026-04-20 17:59 | -36.13613 | -63.31780 | 25033 ft | 436 kts | 53° |
| 2026-04-20 17:59 | -36.12092 | -63.28522 | 25391 ft | 439 kts | 52° |
| 2026-04-20 18:00 | -36.10558 | -63.25242 | 25760 ft | 441 kts | 52° |
| 2026-04-20 18:00 | -36.09020 | -63.21953 | 26125 ft | 443 kts | 52° |
| 2026-04-20 18:00 | -36.07470 | -63.18646 | 26473 ft | 445 kts | 52° |
| 2026-04-20 18:00 | -36.05913 | -63.15323 | 26818 ft | 448 kts | 52° |
| 2026-04-20 18:01 | -36.04349 | -63.11988 | 27153 ft | 450 kts | 52° |
| 2026-04-20 18:01 | -36.02776 | -63.08638 | 27497 ft | 452 kts | 51° |
| 2026-04-20 18:01 | -36.01193 | -63.05268 | 27799 ft | 454 kts | 51° |
| 2026-04-20 18:01 | -35.99602 | -63.01884 | 28100 ft | 456 kts | 51° |
| 2026-04-20 18:02 | -35.98003 | -62.98487 | 28389 ft | 458 kts | 51° |
| 2026-04-20 18:02 | -35.96401 | -62.95086 | 28684 ft | 460 kts | 51° |
| 2026-04-20 18:02 | -35.94788 | -62.91665 | 28966 ft | 462 kts | 51° |
| 2026-04-20 18:02 | -35.93170 | -62.88236 | 29281 ft | 462 kts | 51° |
| 2026-04-20 18:03 | -35.91575 | -62.84858 | 29667 ft | 461 kts | 51° |
| 2026-04-20 18:03 | -35.89961 | -62.81444 | 30088 ft | 460 kts | 51° |
| 2026-04-20 18:03 | -35.88351 | -62.78043 | 30460 ft | 459 kts | 51° |
| 2026-04-20 18:03 | -35.86740 | -62.74643 | 30805 ft | 458 kts | 51° |
| 2026-04-20 18:04 | -35.85134 | -62.71254 | 31143 ft | 458 kts | 51° |
| 2026-04-20 18:04 | -35.83527 | -62.67863 | 31489 ft | 457 kts | 51° |
| 2026-04-20 18:04 | -35.81923 | -62.64483 | 31819 ft | 457 kts | 51° |
| 2026-04-20 18:04 | -35.80318 | -62.61103 | 32138 ft | 457 kts | 51° |
| 2026-04-20 18:05 | -35.77112 | -62.54357 | 32760 ft | 456 kts | 50° |
| 2026-04-20 18:05 | -35.75508 | -62.50989 | 33056 ft | 455 kts | 50° |
| 2026-04-20 18:05 | -35.73908 | -62.47627 | 33356 ft | 454 kts | 50° |
| 2026-04-20 18:06 | -35.72308 | -62.44270 | 33646 ft | 454 kts | 50° |
| 2026-04-20 18:06 | -35.70710 | -62.40921 | 33955 ft | 453 kts | 50° |
| 2026-04-20 18:06 | -35.69115 | -62.37584 | 34218 ft | 453 kts | 50° |
| 2026-04-20 18:06 | -35.67519 | -62.34244 | 34443 ft | 453 kts | 50° |
| 2026-04-20 18:07 | -35.65941 | -62.30947 | 34667 ft | 453 kts | 50° |
| 2026-04-20 18:07 | -35.64334 | -62.27615 | 34902 ft | 453 kts | 49° |
| 2026-04-20 18:07 | -35.62729 | -62.24285 | 35140 ft | 453 kts | 49° |
| 2026-04-20 18:07 | -35.61124 | -62.20950 | 35361 ft | 453 kts | 49° |
| 2026-04-20 18:08 | -35.59520 | -62.17616 | 35582 ft | 454 kts | 49° |
| 2026-04-20 18:08 | -35.57920 | -62.14275 | 35798 ft | 454 kts | 50° |
| 2026-04-20 18:08 | -35.56319 | -62.10927 | 36021 ft | 454 kts | 49° |
| 2026-04-20 18:08 | -35.54717 | -62.07588 | 36246 ft | 454 kts | 49° |
| 2026-04-20 18:09 | -35.53110 | -62.04247 | 36464 ft | 454 kts | 49° |
| 2026-04-20 18:09 | -35.51501 | -62.00903 | 36668 ft | 455 kts | 49° |
| 2026-04-20 18:09 | -35.49887 | -61.97554 | 36880 ft | 455 kts | 49° |
| 2026-04-20 18:09 | -35.48278 | -61.94216 | 37189 ft | 451 kts | 49° |
| 2026-04-20 18:10 | -35.45097 | -61.87632 | 37099 ft | 446 kts | 49° |
| 2026-04-20 18:10 | -35.41933 | -61.81114 | 37101 ft | 444 kts | 48° |
| 2026-04-20 18:11 | -35.38852 | -61.74505 | 37116 ft | 455 kts | 57° |
| 2026-04-20 18:11 | -35.37924 | -61.70725 | 37127 ft | 471 kts | 70° |
| 2026-04-20 18:11 | -35.37304 | -61.66770 | 37133 ft | 473 kts | 70° |
| 2026-04-20 18:12 | -35.36039 | -61.58851 | 37144 ft | 473 kts | 70° |
| 2026-04-20 18:12 | -35.34762 | -61.50933 | 37070 ft | 473 kts | 70° |
| 2026-04-20 18:13 | -35.33481 | -61.43042 | 37069 ft | 472 kts | 70° |
| 2026-04-20 18:13 | -35.32200 | -61.35199 | 37067 ft | 473 kts | 70° |
| 2026-04-20 18:14 | -35.30907 | -61.27316 | 37062 ft | 472 kts | 70° |
| 2026-04-20 18:14 | -35.29607 | -61.19425 | 37069 ft | 472 kts | 70° |
| 2026-04-20 18:15 | -35.28302 | -61.11541 | 37071 ft | 472 kts | 70° |
| 2026-04-20 18:15 | -35.26992 | -61.03660 | 37070 ft | 472 kts | 70° |
| 2026-04-20 18:16 | -35.25678 | -60.95788 | 37074 ft | 472 kts | 69° |
| 2026-04-20 18:16 | -35.24359 | -60.87919 | 37064 ft | 472 kts | 69° |
| 2026-04-20 18:17 | -35.23035 | -60.80054 | 37069 ft | 471 kts | 69° |
| 2026-04-20 18:17 | -35.21718 | -60.72260 | 37061 ft | 471 kts | 69° |
| 2026-04-20 18:18 | -35.20387 | -60.64419 | 37064 ft | 471 kts | 69° |
| 2026-04-20 18:18 | -35.19055 | -60.56585 | 37063 ft | 470 kts | 69° |
| 2026-04-20 18:19 | -35.17718 | -60.48759 | 37061 ft | 470 kts | 69° |
| 2026-04-20 18:19 | -35.16381 | -60.40941 | 37064 ft | 470 kts | 69° |
| 2026-04-20 18:20 | -35.15040 | -60.33134 | 37060 ft | 469 kts | 69° |
| 2026-04-20 18:20 | -35.13676 | -60.25338 | 37057 ft | 469 kts | 69° |
| 2026-04-20 18:21 | -35.12304 | -60.17512 | 36555 ft | 475 kts | 69° |
| 2026-04-20 18:21 | -35.11620 | -60.13591 | 36253 ft | 472 kts | 69° |
| 2026-04-20 18:21 | -35.10924 | -60.09639 | 35518 ft | 477 kts | 69° |
| 2026-04-20 18:22 | -35.10232 | -60.05689 | 34904 ft | 475 kts | 69° |
| 2026-04-20 18:22 | -35.09538 | -60.01746 | 34246 ft | 474 kts | 69° |
| 2026-04-20 18:22 | -35.08847 | -59.97819 | 33563 ft | 472 kts | 69° |
| 2026-04-20 18:22 | -35.08161 | -59.93930 | 32991 ft | 468 kts | 69° |
| 2026-04-20 18:23 | -35.07470 | -59.90041 | 32375 ft | 470 kts | 70° |
| 2026-04-20 18:23 | -35.06773 | -59.86119 | 31728 ft | 475 kts | 70° |
| 2026-04-20 18:23 | -35.06070 | -59.82168 | 31101 ft | 478 kts | 71° |
| 2026-04-20 18:23 | -35.05362 | -59.78196 | 30451 ft | 481 kts | 71° |
| 2026-04-20 18:24 | -35.04647 | -59.74192 | 29778 ft | 484 kts | 72° |
| 2026-04-20 18:24 | -35.03932 | -59.70184 | 29175 ft | 483 kts | 72° |
| 2026-04-20 18:24 | -35.03215 | -59.66177 | 28531 ft | 483 kts | 72° |
| 2026-04-20 18:24 | -35.02509 | -59.62236 | 27898 ft | 479 kts | 72° |
| 2026-04-20 18:25 | -35.01798 | -59.58290 | 27263 ft | 473 kts | 73° |
| 2026-04-20 18:25 | -35.01094 | -59.54388 | 26635 ft | 467 kts | 73° |
| 2026-04-20 18:25 | -35.00398 | -59.50542 | 26018 ft | 462 kts | 73° |
| 2026-04-20 18:25 | -34.99708 | -59.46738 | 25415 ft | 456 kts | 73° |
| 2026-04-20 18:26 | -34.99025 | -59.42981 | 24811 ft | 450 kts | 73° |
| 2026-04-20 18:26 | -34.98351 | -59.39273 | 24210 ft | 445 kts | 74° |
| 2026-04-20 18:26 | -34.97682 | -59.35604 | 23622 ft | 440 kts | 74° |
| 2026-04-20 18:26 | -34.97022 | -59.31992 | 23016 ft | 433 kts | 74° |
| 2026-04-20 18:27 | -34.96373 | -59.28437 | 22464 ft | 427 kts | 74° |
| 2026-04-20 18:27 | -34.95727 | -59.24918 | 21905 ft | 424 kts | 74° |
| 2026-04-20 18:27 | -34.95086 | -59.21427 | 21347 ft | 421 kts | 75° |
| 2026-04-20 18:27 | -34.94447 | -59.17950 | 20776 ft | 418 kts | 75° |
| 2026-04-20 18:28 | -34.93813 | -59.14508 | 20237 ft | 415 kts | 75° |
| 2026-04-20 18:28 | -34.93181 | -59.11087 | 19676 ft | 412 kts | 75° |
| 2026-04-20 18:28 | -34.92555 | -59.07695 | 19142 ft | 409 kts | 75° |
| 2026-04-20 18:28 | -34.91933 | -59.04334 | 18599 ft | 405 kts | 75° |
| 2026-04-20 18:29 | -34.91282 | -59.01009 | 18021 ft | 400 kts | 70° |
| 2026-04-20 18:29 | -34.90017 | -58.98120 | 17509 ft | 385 kts | 46° |
| 2026-04-20 18:29 | -34.87981 | -58.96145 | 17043 ft | 369 kts | 22° |
| 2026-04-20 18:29 | -34.85644 | -58.94918 | 16590 ft | 365 kts | 18° |
| 2026-04-20 18:30 | -34.83317 | -58.93676 | 16086 ft | 364 kts | 19° |
| 2026-04-20 18:30 | -34.81005 | -58.92434 | 15588 ft | 361 kts | 20° |
| 2026-04-20 18:30 | -34.78725 | -58.91205 | 15116 ft | 357 kts | 20° |
| 2026-04-20 18:30 | -34.76464 | -58.89987 | 14644 ft | 354 kts | 20° |
| 2026-04-20 18:31 | -34.74239 | -58.88785 | 14178 ft | 346 kts | 20° |
| 2026-04-20 18:31 | -34.72068 | -58.87607 | 13707 ft | 338 kts | 20° |
| 2026-04-20 18:31 | -34.69945 | -58.86458 | 13279 ft | 329 kts | 20° |
| 2026-04-20 18:31 | -34.67882 | -58.85341 | 12845 ft | 321 kts | 20° |
| 2026-04-20 18:32 | -34.65860 | -58.84247 | 12428 ft | 315 kts | 21° |
| 2026-04-20 18:32 | -34.63877 | -58.83174 | 12016 ft | 309 kts | 21° |
| 2026-04-20 18:32 | -34.61926 | -58.82117 | 11614 ft | 305 kts | 21° |
| 2026-04-20 18:32 | -34.59998 | -58.81075 | 11222 ft | 301 kts | 21° |
| 2026-04-20 18:33 | -34.58095 | -58.80045 | 10815 ft | 299 kts | 21° |
| 2026-04-20 18:33 | -34.56193 | -58.79117 | 10389 ft | 296 kts | 11° |
| 2026-04-20 18:33 | -34.54175 | -58.78750 | 10025 ft | 291 kts | 2° |
| 2026-04-20 18:33 | -34.52161 | -58.78539 | 9591 ft | 289 kts | 3° |
| 2026-04-20 18:34 | -34.50842 | -58.78390 | 9358 ft | 286 kts | 3° |
| 2026-04-20 18:34 | -34.48225 | -58.78089 | 8860 ft | 279 kts | 4° |
| 2026-04-20 18:34 | -34.46948 | -58.77942 | 8607 ft | 276 kts | 4° |
| 2026-04-20 18:34 | -34.45038 | -58.77721 | 8193 ft | 274 kts | 4° |
| 2026-04-20 18:35 | -34.43154 | -58.77501 | 7847 ft | 270 kts | 4° |
| 2026-04-20 18:35 | -34.41295 | -58.77283 | 7489 ft | 267 kts | 4° |
| 2026-04-20 18:35 | -34.39460 | -58.77066 | 7136 ft | 263 kts | 5° |
| 2026-04-20 18:35 | -34.37650 | -58.76701 | 6644 ft | 265 kts | 19° |
| 2026-04-20 18:36 | -34.36157 | -58.75451 | 6314 ft | 264 kts | 50° |
| 2026-04-20 18:36 | -34.35484 | -58.73410 | 5989 ft | 266 kts | 83° |
| 2026-04-20 18:36 | -34.35855 | -58.71230 | 5650 ft | 270 kts | 116° |
| 2026-04-20 18:36 | -34.37000 | -58.69445 | 5325 ft | 269 kts | 131° |
| 2026-04-20 18:37 | -34.38291 | -58.67810 | 4948 ft | 269 kts | 131° |
| 2026-04-20 18:37 | -34.39552 | -58.66150 | 4562 ft | 265 kts | 129° |
| 2026-04-20 18:37 | -34.40735 | -58.64526 | 4238 ft | 251 kts | 129° |
| 2026-04-20 18:37 | -34.41859 | -58.62967 | 3877 ft | 240 kts | 129° |
| 2026-04-20 18:38 | -34.42935 | -58.61474 | 3579 ft | 230 kts | 129° |
| 2026-04-20 18:38 | -34.43969 | -58.60038 | 3299 ft | 222 kts | 128° |
| 2026-04-20 18:38 | -34.44961 | -58.58652 | 3023 ft | 213 kts | 128° |
| 2026-04-20 18:38 | -34.45906 | -58.57345 | 2789 ft | 205 kts | 129° |
| 2026-04-20 18:39 | -34.46855 | -58.56087 | 2600 ft | 201 kts | 129° |
| 2026-04-20 18:39 | -34.47870 | -58.54998 | 2612 ft | 188 kts | 148° |
| 2026-04-20 18:39 | -34.48985 | -58.54192 | 2501 ft | 183 kts | 129° |
| 2026-04-20 18:39 | -34.49652 | -58.52898 | 2247 ft | 180 kts | 115° |
| 2026-04-20 18:40 | -34.50299 | -58.51626 | 1964 ft | 175 kts | 123° |
| 2026-04-20 18:40 | -34.51001 | -58.50468 | 1619 ft | 168 kts | 122° |
| 2026-04-20 18:40 | -34.51595 | -58.49365 | 1599 ft | 146 kts | 120° |
| 2026-04-20 18:40 | -34.52158 | -58.48336 | 1492 ft | 148 kts | 121° |
| 2026-04-20 18:41 | -34.52728 | -58.47304 | 1367 ft | 143 kts | 120° |
| 2026-04-20 18:41 | -34.53271 | -58.46346 | 1112 ft | 133 kts | 121° |
| 2026-04-20 18:41 | -34.53807 | -58.45410 | 659 ft | 135 kts | 118° |
| 2026-04-20 18:41 | -34.54284 | -58.44499 | 421 ft | 120 kts | 124° |
| 2026-04-20 18:42 | -34.54722 | -58.43724 | 282 ft | 102 kts | 127° |
| 2026-04-20 18:42 | -34.55104 | -58.43046 | 134 ft | 97 kts | 125° |
| 2026-04-20 18:42 | -34.55494 | -58.42344 | 47 ft | 96 kts | 125° |
| 2026-04-20 18:42 | -34.55804 | -58.41792 | 24 ft | 57 kts | 123° |
| 2026-04-20 18:43 | -34.55970 | -58.41493 | 26 ft | 25 kts | 124° |
| 2026-04-20 18:43 | -34.56007 | -58.41355 | 30 ft | 13 kts | 52° |
| 2026-04-20 18:43 | -34.55985 | -58.41332 | 26 ft | 0 kts | 37° |
| 2026-04-20 18:43 | -34.55981 | -58.41329 | 26 ft | 3 kts | 37° |
| 2026-04-20 18:44 | -34.55951 | -58.41306 | 26 ft | 7 kts | 26° |
| 2026-04-20 18:44 | -34.55916 | -58.41304 | 27 ft | 4 kts | 5° |
| 2026-04-20 18:44 | -34.55886 | -58.41290 | 27 ft | 6 kts | 27° |
| 2026-04-20 18:44 | -34.55846 | -58.41282 | 27 ft | 6 kts | 352° |
| 2026-04-20 18:45 | -34.55819 | -58.41262 | 26 ft | 3 kts | 40° |
| 2026-04-20 18:45 | -34.55807 | -58.41249 | 26 ft | 1 kts | 40° |
| 2026-04-20 18:45 | -34.55803 | -58.41245 | 26 ft | 0 kts | 40° |